Zeus — V2OR — position and weather

sailwx.info

Track history (hours):
 
Tides and Currents Weather Stations Pressure Air Temp Water Temp Dewpoint Dewpoint Depression Visibility Wind Speed Wind Dir Waves Ship Positions

Zeus

Last reported at 2014-Nov-28 07:16 UTC. Time now 2014-Nov-28 11:03 UTC.
Position N 40°33' E 000°34'.

Length 90 m; draft 3.5 m.

Type: Cargo ship. MMSI: 304011025.

Date/timePositionNaut miles runAvg speedWind from/ knotsBaromVisibWave heightAir tempDewpointWater temp
2014-Nov-28 07:16N 40°33' E 000°34'38 9.7
2014-Nov-28 03:23N 40°07' E 001°10'8 9.7
2014-Nov-28 02:33N 40°02' E 001°18'9 9.1
2014-Nov-28 01:33N 39°55' E 001°25'1010.0
2014-Nov-28 00:33N 39°48' E 001°34'10 9.8
2014-Nov-27 23:33N 39°42' E 001°44'1010.1
2014-Nov-27 22:33N 39°35' E 001°54'1110.6
2014-Nov-27 21:33N 39°27' E 002°04'1110.7
2014-Nov-27 20:33N 39°20' E 002°13'1110.6
2014-Nov-27 19:33N 39°12' E 002°23'1010.1
2014-Nov-27 18:33N 39°07' E 002°34'1010.1
2014-Nov-27 17:33N 39°03' E 002°46'1010.1
2014-Nov-27 16:33N 38°59' E 002°58'1010.2
2014-Nov-27 15:33N 38°55' E 003°10'1010.1
2014-Nov-27 14:33N 38°52' E 003°22'1010.0
2014-Nov-27 13:32N 38°48' E 003°35'  
2014-Nov-23 06:20N 37°25' E 009°58'14 3.8
2014-Nov-23 02:33N 37°25' E 009°40'  
2014-Nov-20 18:11N 36°38' E 000°11'7 9.7
2014-Nov-20 17:25N 36°37' E 000°02'258 8.8
2014-Nov-19 12:10N 36°04' W 005°16'6 1.2
2014-Nov-19 07:20N 36°07' W 005°22'3 4.4
2014-Nov-19 06:33N 36°03' W 005°22'7 7.5
2014-Nov-19 05:33N 35°58' W 005°28'  
Track history (hours):
 
Tides and Currents Weather Stations Pressure Air Temp Water Temp Dewpoint Dewpoint Depression Visibility Wind Speed Wind Dir Waves Ship Positions

Zeus

Last reported at 2014-Nov-28 07:16 UTC. Time now 2014-Nov-28 11:03 UTC.
Position N 40°33' E 000°34'.

Length 90 m; draft 3.5 m.

Type: Cargo ship. MMSI: 304011025.

Date/timePositionNaut miles runAvg speedWind from/ knotsBaromVisibWave heightAir tempDewpointWater temp
2014-Nov-28 07:16N 40°33' E 000°34'38 9.7
2014-Nov-28 03:23N 40°07' E 001°10'8 9.7
2014-Nov-28 02:33N 40°02' E 001°18'9 9.1
2014-Nov-28 01:33N 39°55' E 001°25'1010.0
2014-Nov-28 00:33N 39°48' E 001°34'10 9.8
2014-Nov-27 23:33N 39°42' E 001°44'1010.1
2014-Nov-27 22:33N 39°35' E 001°54'1110.6
2014-Nov-27 21:33N 39°27' E 002°04'1110.7
2014-Nov-27 20:33N 39°20' E 002°13'1110.6
2014-Nov-27 19:33N 39°12' E 002°23'1010.1
2014-Nov-27 18:33N 39°07' E 002°34'1010.1
2014-Nov-27 17:33N 39°03' E 002°46'1010.1
2014-Nov-27 16:33N 38°59' E 002°58'1010.2
2014-Nov-27 15:33N 38°55' E 003°10'1010.1
2014-Nov-27 14:33N 38°52' E 003°22'1010.0
2014-Nov-27 13:32N 38°48' E 003°35'  
2014-Nov-23 06:20N 37°25' E 009°58'14 3.8
2014-Nov-23 02:33N 37°25' E 009°40'  
2014-Nov-20 18:11N 36°38' E 000°11'7 9.7
2014-Nov-20 17:25N 36°37' E 000°02'258 8.8
2014-Nov-19 12:10N 36°04' W 005°16'6 1.2
2014-Nov-19 07:20N 36°07' W 005°22'3 4.4
2014-Nov-19 06:33N 36°03' W 005°22'7 7.5
2014-Nov-19 05:33N 35°58' W 005°28'  

Dump ship's entire track history